sensor_id;sensor_type;location;lat;lon;timestamp;temperature;humidity
69823;SHT31;57119;52.516;13.508;2023-06-26T00:00:48;17.90;99.99
69823;SHT31;57119;52.516;13.508;2023-06-26T00:03:13;17.87;99.99
69823;SHT31;57119;52.516;13.508;2023-06-26T00:05:41;17.85;99.99
69823;SHT31;57119;52.516;13.508;2023-06-26T00:08:07;17.83;99.99
69823;SHT31;57119;52.516;13.508;2023-06-26T00:10:32;17.85;99.99
69823;SHT31;57119;52.516;13.508;2023-06-26T00:12:57;17.82;99.99
69823;SHT31;57119;52.516;13.508;2023-06-26T00:15:23;17.72;99.99
69823;SHT31;57119;52.516;13.508;2023-06-26T00:17:49;17.80;99.99
69823;SHT31;57119;52.516;13.508;2023-06-26T00:20:16;17.76;99.99
69823;SHT31;57119;52.516;13.508;2023-06-26T00:22:43;17.67;99.99
69823;SHT31;57119;52.516;13.508;2023-06-26T00:25:10;17.77;99.99
69823;SHT31;57119;52.516;13.508;2023-06-26T00:27:36;17.76;99.99
69823;SHT31;57119;52.516;13.508;2023-06-26T00:30:01;17.77;99.99
69823;SHT31;57119;52.516;13.508;2023-06-26T00:32:27;17.70;99.99
69823;SHT31;57119;52.516;13.508;2023-06-26T00:34:52;17.70;99.99
69823;SHT31;57119;52.516;13.508;2023-06-26T00:37:18;17.70;99.99
69823;SHT31;57119;52.516;13.508;2023-06-26T00:39:43;17.73;99.99
69823;SHT31;57119;52.516;13.508;2023-06-26T00:42:11;17.69;99.99
69823;SHT31;57119;52.516;13.508;2023-06-26T00:44:37;17.59;99.99
69823;SHT31;57119;52.516;13.508;2023-06-26T00:47:02;17.63;99.99
69823;SHT31;57119;52.516;13.508;2023-06-26T00:49:28;17.67;99.99
69823;SHT31;57119;52.516;13.508;2023-06-26T00:51:54;17.70;99.99
69823;SHT31;57119;52.516;13.508;2023-06-26T00:54:20;17.76;99.99
69823;SHT31;57119;52.516;13.508;2023-06-26T00:56:47;17.67;99.99
69823;SHT31;57119;52.516;13.508;2023-06-26T00:59:13;17.69;99.99
69823;SHT31;57119;52.516;13.508;2023-06-26T01:01:39;17.58;99.99
69823;SHT31;57119;52.516;13.508;2023-06-26T01:04:05;17.63;99.99
69823;SHT31;57119;52.516;13.508;2023-06-26T01:06:31;17.66;99.99
69823;SHT31;57119;52.516;13.508;2023-06-26T01:09:01;17.65;99.99
69823;SHT31;57119;52.516;13.508;2023-06-26T01:11:27;17.72;99.99
69823;SHT31;57119;52.516;13.508;2023-06-26T01:13:53;17.79;99.99
69823;SHT31;57119;52.516;13.508;2023-06-26T01:16:21;17.85;99.99
69823;SHT31;57119;52.516;13.508;2023-06-26T01:18:47;17.89;99.99
69823;SHT31;57119;52.516;13.508;2023-06-26T01:21:14;17.89;99.99
69823;SHT31;57119;52.516;13.508;2023-06-26T01:26:26;17.96;99.99
69823;SHT31;57119;52.516;13.508;2023-06-26T01:28:56;17.98;99.99
69823;SHT31;57119;52.516;13.508;2023-06-26T01:31:22;17.98;99.99
69823;SHT31;57119;52.516;13.508;2023-06-26T01:33:50;18.06;99.99
69823;SHT31;57119;52.516;13.508;2023-06-26T01:36:16;18.06;99.99
69823;SHT31;57119;52.516;13.508;2023-06-26T01:38:42;17.98;99.99
69823;SHT31;57119;52.516;13.508;2023-06-26T01:41:07;18.00;99.99
69823;SHT31;57119;52.516;13.508;2023-06-26T01:46:46;17.89;99.99
69823;SHT31;57119;52.516;13.508;2023-06-26T01:49:23;17.83;99.99
69823;SHT31;57119;52.516;13.508;2023-06-26T01:52:07;17.77;99.99
69823;SHT31;57119;52.516;13.508;2023-06-26T01:54:38;17.76;99.99
69823;SHT31;57119;52.516;13.508;2023-06-26T01:57:08;17.66;99.99
69823;SHT31;57119;52.516;13.508;2023-06-26T01:59:34;17.63;99.99
69823;SHT31;57119;52.516;13.508;2023-06-26T02:02:07;17.61;99.99
69823;SHT31;57119;52.516;13.508;2023-06-26T02:04:32;17.63;99.99
69823;SHT31;57119;52.516;13.508;2023-06-26T02:06:58;17.63;99.99
69823;SHT31;57119;52.516;13.508;2023-06-26T02:09:23;17.62;99.99
69823;SHT31;57119;52.516;13.508;2023-06-26T02:11:48;17.61;99.99
69823;SHT31;57119;52.516;13.508;2023-06-26T02:14:14;17.61;99.99
69823;SHT31;57119;52.516;13.508;2023-06-26T02:16:39;17.63;99.99
69823;SHT31;57119;52.516;13.508;2023-06-26T02:19:05;17.58;99.99
69823;SHT31;57119;52.516;13.508;2023-06-26T02:21:30;17.50;99.99
69823;SHT31;57119;52.516;13.508;2023-06-26T02:23:56;17.50;99.99
69823;SHT31;57119;52.516;13.508;2023-06-26T02:26:22;17.53;99.99
69823;SHT31;57119;52.516;13.508;2023-06-26T02:28:47;17.56;99.99
69823;SHT31;57119;52.516;13.508;2023-06-26T02:31:13;17.53;99.99
69823;SHT31;57119;52.516;13.508;2023-06-26T02:33:38;17.49;99.99
69823;SHT31;57119;52.516;13.508;2023-06-26T02:36:04;17.43;99.99
69823;SHT31;57119;52.516;13.508;2023-06-26T02:38:30;17.48;99.99
69823;SHT31;57119;52.516;13.508;2023-06-26T02:40:55;17.39;99.99
69823;SHT31;57119;52.516;13.508;2023-06-26T02:43:20;17.34;99.99
69823;SHT31;57119;52.516;13.508;2023-06-26T02:45:46;17.34;99.99
69823;SHT31;57119;52.516;13.508;2023-06-26T02:48:11;17.42;99.99
69823;SHT31;57119;52.516;13.508;2023-06-26T02:50:37;17.40;99.99
69823;SHT31;57119;52.516;13.508;2023-06-26T02:53:02;17.42;99.99
69823;SHT31;57119;52.516;13.508;2023-06-26T02:55:28;17.36;99.99
69823;SHT31;57119;52.516;13.508;2023-06-26T02:57:53;17.39;99.99
69823;SHT31;57119;52.516;13.508;2023-06-26T03:00:19;17.46;99.99
69823;SHT31;57119;52.516;13.508;2023-06-26T03:02:44;17.46;99.99
69823;SHT31;57119;52.516;13.508;2023-06-26T03:05:09;17.42;99.99
69823;SHT31;57119;52.516;13.508;2023-06-26T03:07:35;17.48;99.99
69823;SHT31;57119;52.516;13.508;2023-06-26T03:10:00;17.46;99.99
69823;SHT31;57119;52.516;13.508;2023-06-26T03:12:26;17.39;99.99
69823;SHT31;57119;52.516;13.508;2023-06-26T03:14:51;17.35;99.99
69823;SHT31;57119;52.516;13.508;2023-06-26T03:17:17;17.29;99.99
69823;SHT31;57119;52.516;13.508;2023-06-26T03:19:42;17.38;99.99
69823;SHT31;57119;52.516;13.508;2023-06-26T03:22:08;17.28;99.99
69823;SHT31;57119;52.516;13.508;2023-06-26T03:24:33;17.31;99.99
69823;SHT31;57119;52.516;13.508;2023-06-26T03:26:59;17.42;99.99
69823;SHT31;57119;52.516;13.508;2023-06-26T03:29:25;17.39;99.99
69823;SHT31;57119;52.516;13.508;2023-06-26T03:31:50;17.38;99.99
69823;SHT31;57119;52.516;13.508;2023-06-26T03:34:16;17.42;99.99
69823;SHT31;57119;52.516;13.508;2023-06-26T03:36:41;17.36;99.99
69823;SHT31;57119;52.516;13.508;2023-06-26T03:39:07;17.32;99.99
69823;SHT31;57119;52.516;13.508;2023-06-26T03:41:32;17.42;99.99
69823;SHT31;57119;52.516;13.508;2023-06-26T03:43:58;17.48;99.99
69823;SHT31;57119;52.516;13.508;2023-06-26T03:46:25;17.56;99.99
69823;SHT31;57119;52.516;13.508;2023-06-26T03:48:52;17.62;99.99
69823;SHT31;57119;52.516;13.508;2023-06-26T03:51:17;17.69;99.99
69823;SHT31;57119;52.516;13.508;2023-06-26T03:53:43;17.76;99.99
69823;SHT31;57119;52.516;13.508;2023-06-26T03:56:08;17.83;99.99
69823;SHT31;57119;52.516;13.508;2023-06-26T03:58:35;17.94;99.99
69823;SHT31;57119;52.516;13.508;2023-06-26T04:01:00;18.06;99.99
69823;SHT31;57119;52.516;13.508;2023-06-26T04:03:26;18.20;99.99
69823;SHT31;57119;52.516;13.508;2023-06-26T04:05:51;18.34;99.99
69823;SHT31;57119;52.516;13.508;2023-06-26T04:08:17;18.58;99.99
69823;SHT31;57119;52.516;13.508;2023-06-26T04:10:42;18.76;99.99
69823;SHT31;57119;52.516;13.508;2023-06-26T04:13:10;18.99;99.99
69823;SHT31;57119;52.516;13.508;2023-06-26T04:15:39;19.19;99.99
69823;SHT31;57119;52.516;13.508;2023-06-26T04:18:04;19.33;99.99
69823;SHT31;57119;52.516;13.508;2023-06-26T04:20:29;19.48;99.99
69823;SHT31;57119;52.516;13.508;2023-06-26T04:22:55;19.60;99.99
69823;SHT31;57119;52.516;13.508;2023-06-26T04:25:21;19.71;99.99
69823;SHT31;57119;52.516;13.508;2023-06-26T04:27:46;20.04;99.99
69823;SHT31;57119;52.516;13.508;2023-06-26T04:30:12;19.90;99.94
69823;SHT31;57119;52.516;13.508;2023-06-26T04:32:38;19.93;99.53
69823;SHT31;57119;52.516;13.508;2023-06-26T04:35:03;19.96;99.07
69823;SHT31;57119;52.516;13.508;2023-06-26T04:37:29;20.02;99.08
69823;SHT31;57119;52.516;13.508;2023-06-26T04:39:54;20.27;98.08
69823;SHT31;57119;52.516;13.508;2023-06-26T04:42:20;20.33;98.14
69823;SHT31;57119;52.516;13.508;2023-06-26T04:44:47;20.25;98.37
69823;SHT31;57119;52.516;13.508;2023-06-26T04:47:12;20.36;98.41
69823;SHT31;57119;52.516;13.508;2023-06-26T04:49:40;20.36;97.47
69823;SHT31;57119;52.516;13.508;2023-06-26T04:52:08;20.40;97.60
69823;SHT31;57119;52.516;13.508;2023-06-26T04:54:34;20.40;97.38
69823;SHT31;57119;52.516;13.508;2023-06-26T04:56:59;20.48;97.44
69823;SHT31;57119;52.516;13.508;2023-06-26T04:59:25;20.56;97.37
69823;SHT31;57119;52.516;13.508;2023-06-26T05:01:50;20.57;97.91
69823;SHT31;57119;52.516;13.508;2023-06-26T05:07:20;20.87;96.10
69823;SHT31;57119;52.516;13.508;2023-06-26T05:10:07;20.96;94.93
69823;SHT31;57119;52.516;13.508;2023-06-26T05:12:33;21.06;94.86
69823;SHT31;57119;52.516;13.508;2023-06-26T05:15:12;21.38;93.29
69823;SHT31;57119;52.516;13.508;2023-06-26T05:17:38;21.45;92.86
69823;SHT31;57119;52.516;13.508;2023-06-26T05:20:12;21.70;92.21
69823;SHT31;57119;52.516;13.508;2023-06-26T05:22:44;21.64;92.67
69823;SHT31;57119;52.516;13.508;2023-06-26T05:25:29;22.04;92.59
69823;SHT31;57119;52.516;13.508;2023-06-26T05:27:58;21.97;92.29
69823;SHT31;57119;52.516;13.508;2023-06-26T05:30:27;22.15;91.02
69823;SHT31;57119;52.516;13.508;2023-06-26T05:32:54;22.39;91.31
69823;SHT31;57119;52.516;13.508;2023-06-26T05:35:22;22.38;90.30
69823;SHT31;57119;52.516;13.508;2023-06-26T05:37:51;22.58;90.22
69823;SHT31;57119;52.516;13.508;2023-06-26T05:40:18;22.77;89.66
69823;SHT31;57119;52.516;13.508;2023-06-26T05:42:59;22.75;88.95
69823;SHT31;57119;52.516;13.508;2023-06-26T05:45:25;22.65;89.69
69823;SHT31;57119;52.516;13.508;2023-06-26T05:47:51;22.76;89.03
69823;SHT31;57119;52.516;13.508;2023-06-26T05:50:20;22.83;89.36
69823;SHT31;57119;52.516;13.508;2023-06-26T05:52:46;22.62;88.74
69823;SHT31;57119;52.516;13.508;2023-06-26T05:55:12;22.60;89.45
69823;SHT31;57119;52.516;13.508;2023-06-26T05:57:40;22.52;89.00
69823;SHT31;57119;52.516;13.508;2023-06-26T06:00:09;22.46;89.75
69823;SHT31;57119;52.516;13.508;2023-06-26T06:02:37;22.42;89.08
69823;SHT31;57119;52.516;13.508;2023-06-26T06:05:03;22.62;87.65
69823;SHT31;57119;52.516;13.508;2023-06-26T06:07:28;22.90;88.39
69823;SHT31;57119;52.516;13.508;2023-06-26T06:09:57;23.11;88.43
69823;SHT31;57119;52.516;13.508;2023-06-26T06:12:46;22.87;86.57
69823;SHT31;57119;52.516;13.508;2023-06-26T06:18:21;23.31;85.35
69823;SHT31;57119;52.516;13.508;2023-06-26T06:20:50;23.25;85.73
69823;SHT31;57119;52.516;13.508;2023-06-26T06:23:23;23.41;85.13
69823;SHT31;57119;52.516;13.508;2023-06-26T06:26:10;23.57;84.12
69823;SHT31;57119;52.516;13.508;2023-06-26T06:28:39;23.66;82.48
69823;SHT31;57119;52.516;13.508;2023-06-26T06:31:11;23.71;82.67
69823;SHT31;57119;52.516;13.508;2023-06-26T06:33:39;23.57;82.44
69823;SHT31;57119;52.516;13.508;2023-06-26T06:36:05;23.71;83.40
69823;SHT31;57119;52.516;13.508;2023-06-26T06:38:43;23.95;81.16
69823;SHT31;57119;52.516;13.508;2023-06-26T06:41:09;24.10;80.74
69823;SHT31;57119;52.516;13.508;2023-06-26T06:43:48;24.19;80.65
69823;SHT31;57119;52.516;13.508;2023-06-26T06:46:14;24.21;79.99
69823;SHT31;57119;52.516;13.508;2023-06-26T06:48:39;24.51;80.31
69823;SHT31;57119;52.516;13.508;2023-06-26T06:51:05;24.44;80.08
69823;SHT31;57119;52.516;13.508;2023-06-26T06:53:31;24.84;79.58
69823;SHT31;57119;52.516;13.508;2023-06-26T06:55:59;24.69;79.48
69823;SHT31;57119;52.516;13.508;2023-06-26T06:58:25;24.71;78.86
69823;SHT31;57119;52.516;13.508;2023-06-26T07:01:01;24.92;78.72
69823;SHT31;57119;52.516;13.508;2023-06-26T07:03:38;25.26;78.64
69823;SHT31;57119;52.516;13.508;2023-06-26T07:06:04;25.22;77.96
69823;SHT31;57119;52.516;13.508;2023-06-26T07:08:32;25.05;77.95
69823;SHT31;57119;52.516;13.508;2023-06-26T07:11:00;25.40;77.10
69823;SHT31;57119;52.516;13.508;2023-06-26T07:13:25;25.83;77.22
69823;SHT31;57119;52.516;13.508;2023-06-26T07:15:51;25.45;77.35
69823;SHT31;57119;52.516;13.508;2023-06-26T07:18:40;25.62;77.56
69823;SHT31;57119;52.516;13.508;2023-06-26T07:21:05;26.01;75.47
69823;SHT31;57119;52.516;13.508;2023-06-26T07:23:44;26.17;74.54
69823;SHT31;57119;52.516;13.508;2023-06-26T07:26:09;26.31;74.49
69823;SHT31;57119;52.516;13.508;2023-06-26T07:28:35;26.36;73.64
69823;SHT31;57119;52.516;13.508;2023-06-26T07:31:00;26.41;72.85
69823;SHT31;57119;52.516;13.508;2023-06-26T07:33:26;26.22;73.35
69823;SHT31;57119;52.516;13.508;2023-06-26T07:35:51;25.95;73.99
69823;SHT31;57119;52.516;13.508;2023-06-26T07:38:17;26.20;73.82
69823;SHT31;57119;52.516;13.508;2023-06-26T07:40:44;26.66;73.20
69823;SHT31;57119;52.516;13.508;2023-06-26T07:43:10;27.06;72.39
69823;SHT31;57119;52.516;13.508;2023-06-26T07:45:35;27.30;69.62
69823;SHT31;57119;52.516;13.508;2023-06-26T07:48:01;27.47;70.14
69823;SHT31;57119;52.516;13.508;2023-06-26T07:50:26;27.44;70.34
69823;SHT31;57119;52.516;13.508;2023-06-26T07:52:51;27.73;69.90
69823;SHT31;57119;52.516;13.508;2023-06-26T07:55:18;28.18;68.35
69823;SHT31;57119;52.516;13.508;2023-06-26T07:57:43;27.83;67.71
69823;SHT31;57119;52.516;13.508;2023-06-26T08:00:11;28.47;67.88
69823;SHT31;57119;52.516;13.508;2023-06-26T08:02:37;28.71;66.43
69823;SHT31;57119;52.516;13.508;2023-06-26T08:05:05;29.33;64.71
69823;SHT31;57119;52.516;13.508;2023-06-26T08:07:31;29.25;64.11
69823;SHT31;57119;52.516;13.508;2023-06-26T08:09:58;29.08;65.01
69823;SHT31;57119;52.516;13.508;2023-06-26T08:12:24;29.81;63.82
69823;SHT31;57119;52.516;13.508;2023-06-26T08:14:50;30.08;62.99
69823;SHT31;57119;52.516;13.508;2023-06-26T08:17:15;29.31;63.89
69823;SHT31;57119;52.516;13.508;2023-06-26T08:19:40;29.73;62.59
69823;SHT31;57119;52.516;13.508;2023-06-26T08:22:09;29.91;62.97
69823;SHT31;57119;52.516;13.508;2023-06-26T08:24:35;30.79;60.61
69823;SHT31;57119;52.516;13.508;2023-06-26T08:27:02;31.11;60.74
69823;SHT31;57119;52.516;13.508;2023-06-26T08:29:28;30.84;60.71
69823;SHT31;57119;52.516;13.508;2023-06-26T08:31:54;31.00;61.25
69823;SHT31;57119;52.516;13.508;2023-06-26T08:34:20;30.91;59.16
69823;SHT31;57119;52.516;13.508;2023-06-26T08:36:45;31.30;59.27
69823;SHT31;57119;52.516;13.508;2023-06-26T08:39:11;30.42;60.43
69823;SHT31;57119;52.516;13.508;2023-06-26T08:41:37;31.31;59.37
69823;SHT31;57119;52.516;13.508;2023-06-26T08:44:03;30.80;58.38
69823;SHT31;57119;52.516;13.508;2023-06-26T08:46:30;31.17;58.50
69823;SHT31;57119;52.516;13.508;2023-06-26T08:48:56;30.97;58.77
69823;SHT31;57119;52.516;13.508;2023-06-26T08:51:25;30.74;59.18
69823;SHT31;57119;52.516;13.508;2023-06-26T08:54:01;31.70;57.52
69823;SHT31;57119;52.516;13.508;2023-06-26T08:56:38;31.85;57.12
69823;SHT31;57119;52.516;13.508;2023-06-26T08:59:06;31.14;57.63
69823;SHT31;57119;52.516;13.508;2023-06-26T09:01:33;31.46;58.44
69823;SHT31;57119;52.516;13.508;2023-06-26T09:03:58;32.33;57.28
69823;SHT31;57119;52.516;13.508;2023-06-26T09:06:24;33.16;56.58
69823;SHT31;57119;52.516;13.508;2023-06-26T09:08:52;32.41;55.45
69823;SHT31;57119;52.516;13.508;2023-06-26T09:11:18;31.94;56.69
69823;SHT31;57119;52.516;13.508;2023-06-26T09:13:44;31.85;56.71
69823;SHT31;57119;52.516;13.508;2023-06-26T09:16:10;31.89;56.70
69823;SHT31;57119;52.516;13.508;2023-06-26T09:18:35;32.09;55.58
69823;SHT31;57119;52.516;13.508;2023-06-26T09:21:07;33.88;53.84
69823;SHT31;57119;52.516;13.508;2023-06-26T09:23:34;33.80;52.20
69823;SHT31;57119;52.516;13.508;2023-06-26T09:26:02;33.66;52.63
69823;SHT31;57119;52.516;13.508;2023-06-26T09:28:28;34.01;52.07
69823;SHT31;57119;52.516;13.508;2023-06-26T09:31:03;33.77;52.80
69823;SHT31;57119;52.516;13.508;2023-06-26T09:33:39;34.45;51.88
69823;SHT31;57119;52.516;13.508;2023-06-26T09:36:19;35.59;49.57
69823;SHT31;57119;52.516;13.508;2023-06-26T09:39:08;35.31;48.79
69823;SHT31;57119;52.516;13.508;2023-06-26T09:41:36;34.93;49.58
69823;SHT31;57119;52.516;13.508;2023-06-26T09:44:04;34.22;51.17
69823;SHT31;57119;52.516;13.508;2023-06-26T09:46:52;33.37;52.61
69823;SHT31;57119;52.516;13.508;2023-06-26T09:49:28;33.56;51.74
69823;SHT31;57119;52.516;13.508;2023-06-26T09:51:54;33.57;52.24
69823;SHT31;57119;52.516;13.508;2023-06-26T09:54:27;35.01;50.67
69823;SHT31;57119;52.516;13.508;2023-06-26T09:57:07;34.42;49.91
69823;SHT31;57119;52.516;13.508;2023-06-26T09:59:35;34.79;49.75
69823;SHT31;57119;52.516;13.508;2023-06-26T10:02:03;34.92;49.44
69823;SHT31;57119;52.516;13.508;2023-06-26T10:04:29;35.71;47.73
69823;SHT31;57119;52.516;13.508;2023-06-26T10:06:56;35.84;48.01
69823;SHT31;57119;52.516;13.508;2023-06-26T10:09:23;35.45;47.59
69823;SHT31;57119;52.516;13.508;2023-06-26T10:12:06;35.14;48.33
69823;SHT31;57119;52.516;13.508;2023-06-26T10:15:02;35.69;47.99
69823;SHT31;57119;52.516;13.508;2023-06-26T10:17:31;35.47;48.39
69823;SHT31;57119;52.516;13.508;2023-06-26T10:20:01;35.65;47.98
69823;SHT31;57119;52.516;13.508;2023-06-26T10:22:43;35.01;48.93
69823;SHT31;57119;52.516;13.508;2023-06-26T10:25:10;34.36;50.82
69823;SHT31;57119;52.516;13.508;2023-06-26T10:27:48;35.18;49.51
69823;SHT31;57119;52.516;13.508;2023-06-26T10:30:33;35.74;48.69
69823;SHT31;57119;52.516;13.508;2023-06-26T10:33:04;35.23;47.86
69823;SHT31;57119;52.516;13.508;2023-06-26T10:35:43;35.89;47.15
69823;SHT31;57119;52.516;13.508;2023-06-26T10:39:25;33.94;50.77
69823;SHT31;57119;52.516;13.508;2023-06-26T10:41:40;35.23;49.78
69823;SHT31;57119;52.516;13.508;2023-06-26T10:44:16;34.44;51.14
69823;SHT31;57119;52.516;13.508;2023-06-26T10:46:58;34.31;51.26
69823;SHT31;57119;52.516;13.508;2023-06-26T10:49:38;34.76;50.98
69823;SHT31;57119;52.516;13.508;2023-06-26T10:52:08;35.71;50.42
69823;SHT31;57119;52.516;13.508;2023-06-26T10:54:37;34.32;50.50
69823;SHT31;57119;52.516;13.508;2023-06-26T10:57:02;35.28;49.55
69823;SHT31;57119;52.516;13.508;2023-06-26T10:59:32;36.25;48.29
69823;SHT31;57119;52.516;13.508;2023-06-26T11:02:06;37.73;46.91
69823;SHT31;57119;52.516;13.508;2023-06-26T11:04:44;36.84;48.11
69823;SHT31;57119;52.516;13.508;2023-06-26T11:07:18;36.88;47.79
69823;SHT31;57119;52.516;13.508;2023-06-26T11:10:13;36.68;48.67
69823;SHT31;57119;52.516;13.508;2023-06-26T11:12:45;37.81;46.12
69823;SHT31;57119;52.516;13.508;2023-06-26T11:15:15;36.17;47.73
69823;SHT31;57119;52.516;13.508;2023-06-26T11:17:49;36.05;47.41
69823;SHT31;57119;52.516;13.508;2023-06-26T11:20:16;35.89;47.81
69823;SHT31;57119;52.516;13.508;2023-06-26T11:25:15;34.45;50.28
69823;SHT31;57119;52.516;13.508;2023-06-26T11:27:43;36.61;47.88
69823;SHT31;57119;52.516;13.508;2023-06-26T11:30:23;36.84;46.91
69823;SHT31;57119;52.516;13.508;2023-06-26T11:32:49;37.36;47.47
69823;SHT31;57119;52.516;13.508;2023-06-26T11:35:24;37.78;45.68
69823;SHT31;57119;52.516;13.508;2023-06-26T11:37:59;37.73;45.66
69823;SHT31;57119;52.516;13.508;2023-06-26T11:40:29;38.31;46.04
69823;SHT31;57119;52.516;13.508;2023-06-26T11:43:00;36.43;47.15
69823;SHT31;57119;52.516;13.508;2023-06-26T11:45:31;36.73;46.58
69823;SHT31;57119;52.516;13.508;2023-06-26T11:47:57;37.50;46.58
69823;SHT31;57119;52.516;13.508;2023-06-26T11:50:23;37.52;45.31
69823;SHT31;57119;52.516;13.508;2023-06-26T11:52:58;36.71;46.71
69823;SHT31;57119;52.516;13.508;2023-06-26T11:55:25;37.14;46.04
69823;SHT31;57119;52.516;13.508;2023-06-26T11:57:55;37.40;46.05
69823;SHT31;57119;52.516;13.508;2023-06-26T12:00:21;38.69;45.17
69823;SHT31;57119;52.516;13.508;2023-06-26T12:02:47;39.78;43.87
69823;SHT31;57119;52.516;13.508;2023-06-26T12:05:14;37.15;46.41
69823;SHT31;57119;52.516;13.508;2023-06-26T12:07:43;36.40;47.34
69823;SHT31;57119;52.516;13.508;2023-06-26T12:10:10;36.51;47.81
69823;SHT31;57119;52.516;13.508;2023-06-26T12:12:36;37.19;46.48
69823;SHT31;57119;52.516;13.508;2023-06-26T12:15:02;37.43;46.15
69823;SHT31;57119;52.516;13.508;2023-06-26T12:17:28;37.67;45.52
69823;SHT31;57119;52.516;13.508;2023-06-26T12:19:54;38.07;45.50
69823;SHT31;57119;52.516;13.508;2023-06-26T12:22:19;38.62;44.74
69823;SHT31;57119;52.516;13.508;2023-06-26T12:24:45;38.68;45.23
69823;SHT31;57119;52.516;13.508;2023-06-26T12:27:13;38.34;44.72
69823;SHT31;57119;52.516;13.508;2023-06-26T12:29:41;39.58;43.72
69823;SHT31;57119;52.516;13.508;2023-06-26T12:32:10;38.35;45.19
69823;SHT31;57119;52.516;13.508;2023-06-26T12:34:37;36.63;46.24
69823;SHT31;57119;52.516;13.508;2023-06-26T12:37:05;37.80;45.97
69823;SHT31;57119;52.516;13.508;2023-06-26T12:39:45;35.84;47.65
69823;SHT31;57119;52.516;13.508;2023-06-26T12:42:14;35.93;47.41
69823;SHT31;57119;52.516;13.508;2023-06-26T12:44:40;36.61;47.40
69823;SHT31;57119;52.516;13.508;2023-06-26T12:47:05;38.07;45.91
69823;SHT31;57119;52.516;13.508;2023-06-26T12:52:02;35.45;47.87
69823;SHT31;57119;52.516;13.508;2023-06-26T12:54:29;34.83;48.61
69823;SHT31;57119;52.516;13.508;2023-06-26T12:56:54;36.25;46.84
69823;SHT31;57119;52.516;13.508;2023-06-26T12:59:21;38.11;45.72
69823;SHT31;57119;52.516;13.508;2023-06-26T13:01:46;38.66;44.44
69823;SHT31;57119;52.516;13.508;2023-06-26T13:04:12;36.67;46.68
69823;SHT31;57119;52.516;13.508;2023-06-26T13:06:37;35.31;48.11
69823;SHT31;57119;52.516;13.508;2023-06-26T13:09:03;34.59;49.66
69823;SHT31;57119;52.516;13.508;2023-06-26T13:11:32;34.21;50.19
69823;SHT31;57119;52.516;13.508;2023-06-26T13:13:58;34.16;50.93
69823;SHT31;57119;52.516;13.508;2023-06-26T13:16:24;33.56;51.05
69823;SHT31;57119;52.516;13.508;2023-06-26T13:18:50;33.49;51.14
69823;SHT31;57119;52.516;13.508;2023-06-26T13:21:16;33.01;52.22
69823;SHT31;57119;52.516;13.508;2023-06-26T13:23:42;32.86;52.65
69823;SHT31;57119;52.516;13.508;2023-06-26T13:26:08;32.65;53.20
69823;SHT31;57119;52.516;13.508;2023-06-26T13:28:35;32.06;54.12
69823;SHT31;57119;52.516;13.508;2023-06-26T13:31:02;31.72;54.26
69823;SHT31;57119;52.516;13.508;2023-06-26T13:33:27;31.57;54.31
69823;SHT31;57119;52.516;13.508;2023-06-26T13:35:53;31.69;54.98
69823;SHT31;57119;52.516;13.508;2023-06-26T13:38:22;31.39;54.85
69823;SHT31;57119;52.516;13.508;2023-06-26T13:40:52;31.10;55.21
69823;SHT31;57119;52.516;13.508;2023-06-26T13:43:17;31.30;56.47
69823;SHT31;57119;52.516;13.508;2023-06-26T13:45:43;31.07;56.83
69823;SHT31;57119;52.516;13.508;2023-06-26T13:48:08;30.83;56.48
69823;SHT31;57119;52.516;13.508;2023-06-26T13:50:33;30.55;56.48
69823;SHT31;57119;52.516;13.508;2023-06-26T13:52:59;30.80;57.10
69823;SHT31;57119;52.516;13.508;2023-06-26T13:55:24;30.98;56.64
69823;SHT31;57119;52.516;13.508;2023-06-26T13:57:49;30.87;56.17
69823;SHT31;57119;52.516;13.508;2023-06-26T14:00:15;31.51;56.59
69823;SHT31;57119;52.516;13.508;2023-06-26T14:02:46;31.45;55.38
69823;SHT31;57119;52.516;13.508;2023-06-26T14:05:12;31.22;58.20
69823;SHT31;57119;52.516;13.508;2023-06-26T14:07:37;31.22;58.93
69823;SHT31;57119;52.516;13.508;2023-06-26T14:10:04;30.80;58.39
69823;SHT31;57119;52.516;13.508;2023-06-26T14:12:31;30.70;59.86
69823;SHT31;57119;52.516;13.508;2023-06-26T14:14:57;30.53;60.00
69823;SHT31;57119;52.516;13.508;2023-06-26T14:17:23;30.42;57.95
69823;SHT31;57119;52.516;13.508;2023-06-26T14:19:51;29.92;63.44
69823;SHT31;57119;52.516;13.508;2023-06-26T14:22:17;29.67;59.27
69823;SHT31;57119;52.516;13.508;2023-06-26T14:24:43;29.77;58.26
69823;SHT31;57119;52.516;13.508;2023-06-26T14:27:08;29.82;58.92
69823;SHT31;57119;52.516;13.508;2023-06-26T14:29:33;29.27;61.10
69823;SHT31;57119;52.516;13.508;2023-06-26T14:31:59;27.75;68.07
69823;SHT31;57119;52.516;13.508;2023-06-26T14:34:24;23.93;85.89
69823;SHT31;57119;52.516;13.508;2023-06-26T14:36:50;21.47;98.36
69823;SHT31;57119;52.516;13.508;2023-06-26T14:39:15;20.70;99.99
69823;SHT31;57119;52.516;13.508;2023-06-26T14:41:41;20.32;99.99
69823;SHT31;57119;52.516;13.508;2023-06-26T14:44:07;20.15;99.99
69823;SHT31;57119;52.516;13.508;2023-06-26T14:46:35;20.00;99.99
69823;SHT31;57119;52.516;13.508;2023-06-26T14:49:00;19.88;99.99
69823;SHT31;57119;52.516;13.508;2023-06-26T14:51:25;19.81;99.99
69823;SHT31;57119;52.516;13.508;2023-06-26T14:53:51;19.81;99.99
69823;SHT31;57119;52.516;13.508;2023-06-26T14:56:16;19.86;99.99
69823;SHT31;57119;52.516;13.508;2023-06-26T14:58:41;19.82;99.99
69823;SHT31;57119;52.516;13.508;2023-06-26T15:01:07;19.99;99.99
69823;SHT31;57119;52.516;13.508;2023-06-26T15:03:32;20.09;99.99
69823;SHT31;57119;52.516;13.508;2023-06-26T15:05:58;20.13;99.99
69823;SHT31;57119;52.516;13.508;2023-06-26T15:08:23;20.19;99.99
69823;SHT31;57119;52.516;13.508;2023-06-26T15:10:48;20.33;99.99
69823;SHT31;57119;52.516;13.508;2023-06-26T15:13:14;20.47;99.99
69823;SHT31;57119;52.516;13.508;2023-06-26T15:15:39;20.53;99.99
69823;SHT31;57119;52.516;13.508;2023-06-26T15:18:05;20.58;99.99
69823;SHT31;57119;52.516;13.508;2023-06-26T15:20:31;20.57;99.99
69823;SHT31;57119;52.516;13.508;2023-06-26T15:22:56;20.51;99.99
69823;SHT31;57119;52.516;13.508;2023-06-26T15:25:23;20.48;99.99
69823;SHT31;57119;52.516;13.508;2023-06-26T15:27:49;20.46;99.99
69823;SHT31;57119;52.516;13.508;2023-06-26T15:30:15;20.36;99.99
69823;SHT31;57119;52.516;13.508;2023-06-26T15:32:41;20.34;99.99
69823;SHT31;57119;52.516;13.508;2023-06-26T15:35:07;20.29;99.99
69823;SHT31;57119;52.516;13.508;2023-06-26T15:37:32;20.27;99.99